KLFI

Langley AFB Airport

Hampton, Virginia, USA
METAR KLFI 202256Z AUTO 12007KT 10SM CLR 26/23 A3003 RMK AO2 SLP176 T02620234 $
Observed Flight Rules
Aug-20 @ 22:56 UTC (an hour ago) Visual Flight Rules
Wind Visibility Clouds
120° at 7 knots 10 miles
  • Clear skies
Temperatures Readings
Current 26°C / 79°F
Dewpoint 23°C / 73°F
Humidity 84%
Altimeter 30.03" Hg
Pressure 1017.6 hPa
Elevation 3
METAR KLFI 202256Z AUTO 12007KT 10SM CLR 26/23 A3003 RMK AO2 SLP176 T02620234 $
Observed Flight Rules
Aug-20 @ 22:56 UTC
(an hour ago)
VFR
Wind Visibility
120° at 7 knots 10 miles
Clouds
  • Clear skies
Temperature Dewpoint
26°C / 79°F 23°C / 73°F
Humidity Altimeter Pressure
84% 30.03" Hg 1017.6 hPa